createdAt,value
2023-01-02T00:00:39.128Z,11.40
2023-01-02T00:03:26.288Z,8.73
2023-01-02T00:06:13.376Z,8.60
2023-01-02T00:09:00.513Z,7.40
2023-01-02T00:11:47.600Z,6.18
2023-01-02T00:14:35.947Z,4.88
2023-01-02T00:17:22.866Z,5.70
2023-01-02T00:20:10.289Z,5.93
2023-01-02T00:22:56.962Z,7.50
2023-01-02T00:25:43.921Z,8.88
2023-01-02T00:28:31.116Z,6.65
2023-01-02T00:31:19.587Z,9.85
2023-01-02T00:34:06.678Z,8.80
2023-01-02T00:36:53.615Z,7.47
2023-01-02T00:39:40.467Z,7.75
2023-01-02T00:42:27.233Z,8.32
2023-01-02T00:45:14.421Z,5.20
2023-01-02T00:48:03.009Z,6.97
2023-01-02T00:50:50.171Z,5.75
2023-01-02T00:53:37.458Z,10.43
2023-01-02T00:56:24.601Z,7.25
2023-01-02T00:59:11.610Z,4.88
2023-01-02T01:01:58.634Z,9.00
2023-01-02T01:04:47.255Z,6.50
2023-01-02T01:07:34.188Z,8.00
2023-01-02T01:10:21.394Z,6.40
2023-01-02T01:13:08.677Z,6.38
2023-01-02T01:15:57.715Z,7.55
2023-01-02T01:18:47.425Z,5.95
2023-01-02T01:21:36.695Z,8.98
2023-01-02T01:24:25.757Z,8.63
2023-01-02T01:27:13.129Z,7.03
2023-01-02T01:30:02.868Z,8.57
2023-01-02T01:32:52.510Z,6.43
2023-01-02T01:35:41.994Z,11.82
2023-01-02T01:38:32.776Z,7.00
2023-01-02T01:41:23.843Z,13.02
2023-01-02T01:44:33.768Z,5.97
2023-01-02T01:47:25.661Z,7.18
2023-01-02T01:50:17.074Z,8.10
2023-01-02T01:53:07.413Z,5.82
2023-01-02T01:55:59.856Z,12.57
2023-01-02T01:58:49.130Z,5.50
2023-01-02T02:01:36.397Z,8.02
2023-01-02T02:04:26.451Z,7.03
2023-01-02T02:07:14.237Z,8.50
2023-01-02T02:10:02.922Z,8.07
2023-01-02T02:12:51.457Z,4.90
2023-01-02T02:15:41.673Z,7.85
2023-01-02T02:18:36.160Z,5.18
2023-01-02T02:21:31.986Z,5.95
2023-01-02T02:24:34.010Z,6.82
2023-01-02T02:27:30.348Z,8.63
2023-01-02T02:30:19.756Z,8.73
2023-01-02T02:33:13.075Z,7.95
2023-01-02T02:36:04.331Z,7.53
2023-01-02T02:38:58.524Z,6.20
2023-01-02T02:41:48.275Z,7.03
2023-01-02T02:44:43.089Z,8.10
2023-01-02T02:47:34.735Z,12.32
2023-01-02T02:50:23.863Z,7.78
2023-01-02T02:53:14.598Z,6.25
2023-01-02T02:56:03.120Z,8.80
2023-01-02T02:58:50.019Z,7.53
2023-01-02T03:01:37.301Z,7.22
2023-01-02T03:04:25.619Z,9.52
2023-01-02T03:07:16.013Z,7.15
2023-01-02T03:10:10.722Z,5.95
2023-01-02T03:13:04.042Z,8.23
2023-01-02T03:15:55.667Z,6.43
2023-01-02T03:18:46.317Z,7.78
2023-01-02T03:21:36.255Z,7.18
2023-01-02T03:24:23.852Z,7.65
2023-01-02T03:27:12.440Z,14.75
2023-01-02T03:30:02.411Z,9.15
2023-01-02T03:32:51.463Z,5.95
2023-01-02T03:35:41.492Z,5.00
2023-01-02T03:38:32.248Z,6.90
2023-01-02T03:41:21.995Z,8.02
2023-01-02T03:44:09.868Z,7.95
2023-01-02T03:47:00.763Z,7.18
2023-01-02T03:49:51.141Z,4.47
2023-01-02T03:52:38.087Z,8.80
2023-01-02T03:55:27.039Z,7.97
2023-01-02T03:58:17.867Z,6.47
2023-01-02T04:01:06.670Z,9.75
2023-01-02T04:03:57.653Z,5.25
2023-01-02T04:06:47.175Z,4.45
2023-01-02T04:09:35.947Z,6.90
2023-01-02T04:12:26.085Z,6.47
2023-01-02T04:15:14.044Z,7.30
2023-01-02T04:18:02.851Z,5.15
2023-01-02T04:20:51.673Z,5.45
2023-01-02T04:23:40.672Z,9.65
2023-01-02T04:26:28.871Z,5.53
2023-01-02T04:29:17.127Z,7.28
2023-01-02T04:32:06.250Z,7.13
2023-01-02T04:34:53.759Z,7.70
2023-01-02T04:37:42.253Z,7.53
2023-01-02T04:40:31.059Z,9.68
2023-01-02T04:43:19.807Z,7.78
2023-01-02T04:46:08.533Z,6.85
2023-01-02T04:48:56.291Z,7.78
2023-01-02T04:51:43.130Z,6.22
2023-01-02T04:54:30.067Z,5.25
2023-01-02T04:57:16.871Z,14.15
2023-01-02T05:00:04.076Z,10.75
2023-01-02T05:02:52.539Z,7.88
2023-01-02T05:05:39.810Z,6.30
2023-01-02T05:08:26.668Z,6.20
2023-01-02T05:11:15.680Z,9.10
2023-01-02T05:14:07.396Z,11.52
2023-01-02T05:16:55.219Z,7.45
2023-01-02T05:19:43.518Z,5.40
2023-01-02T05:22:47.898Z,6.68
2023-01-02T05:28:21.638Z,4.50
2023-01-02T05:31:08.616Z,11.00
2023-01-02T05:33:56.211Z,7.07
2023-01-02T05:36:44.935Z,5.68
2023-01-02T05:39:32.259Z,6.65
2023-01-02T05:42:19.291Z,9.60
2023-01-02T05:45:06.811Z,4.85
2023-01-02T05:47:53.647Z,10.27
2023-01-02T05:50:40.651Z,9.60
2023-01-02T05:53:29.209Z,6.45
2023-01-02T05:56:17.951Z,7.63
2023-01-02T05:59:07.507Z,7.43
2023-01-02T06:01:54.777Z,6.13
2023-01-02T06:04:42.007Z,6.68
2023-01-02T06:07:28.890Z,5.32
2023-01-02T06:10:17.563Z,7.07
2023-01-02T06:13:04.590Z,8.93
2023-01-02T06:15:51.833Z,8.52
2023-01-02T06:18:39.779Z,6.55
2023-01-02T06:21:27.142Z,8.98
2023-01-02T06:24:14.300Z,7.68
2023-01-02T06:27:02.637Z,12.25
2023-01-02T06:29:49.722Z,6.90
2023-01-02T06:32:36.627Z,5.45
2023-01-02T06:35:23.683Z,6.78
2023-01-02T06:38:10.500Z,7.13
2023-01-02T06:40:58.299Z,7.30
2023-01-02T06:43:47.312Z,8.18
2023-01-02T06:46:34.136Z,8.68
2023-01-02T06:49:21.135Z,6.40
2023-01-02T06:52:08.058Z,8.73
2023-01-02T06:54:54.966Z,7.07
2023-01-02T06:57:41.831Z,3.97
2023-01-02T07:00:30.277Z,7.85
2023-01-02T07:03:17.570Z,5.35
2023-01-02T07:06:05.368Z,5.00
2023-01-02T07:08:53.096Z,7.82
2023-01-02T07:11:40.117Z,11.60
2023-01-02T07:14:26.982Z,7.22
2023-01-02T07:17:15.244Z,8.65
2023-01-02T07:20:02.672Z,5.90
2023-01-02T07:22:50.744Z,12.73
2023-01-02T07:25:44.080Z,12.05
2023-01-02T07:28:31.746Z,5.93
2023-01-02T07:31:20.231Z,10.50
2023-01-02T07:34:08.972Z,6.35
2023-01-02T07:36:56.204Z,6.97
2023-01-02T07:39:43.171Z,9.73
2023-01-02T07:42:30.133Z,8.50
2023-01-02T07:45:17.106Z,5.25
2023-01-02T07:48:04.099Z,5.50
2023-01-02T07:50:52.285Z,10.63
2023-01-02T07:53:39.637Z,6.32
2023-01-02T07:56:26.748Z,5.80
2023-01-02T07:59:13.826Z,6.97
2023-01-02T08:02:00.902Z,7.60
2023-01-02T08:04:48.393Z,10.30
2023-01-02T08:07:44.441Z,8.35
2023-01-02T08:10:31.841Z,9.20
2023-01-02T08:13:18.732Z,7.05
2023-01-02T08:16:06.257Z,7.65
2023-01-02T08:18:55.636Z,8.38
2023-01-02T08:21:42.662Z,9.38
2023-01-02T08:24:30.976Z,8.85
2023-01-02T08:27:18.066Z,6.20
2023-01-02T08:30:05.277Z,5.60
2023-01-02T08:32:52.330Z,8.75
2023-01-02T08:35:39.417Z,7.88
2023-01-02T08:38:26.327Z,8.98
2023-01-02T08:41:15.481Z,7.15
2023-01-02T08:44:02.494Z,8.45
2023-01-02T08:46:49.532Z,7.40
2023-01-02T08:49:36.705Z,9.05
2023-01-02T08:52:23.759Z,5.65
2023-01-02T08:55:11.031Z,6.25
2023-01-02T08:57:59.278Z,6.32
2023-01-02T09:00:46.237Z,7.53
2023-01-02T09:03:33.054Z,6.60
2023-01-02T09:06:22.228Z,4.03
2023-01-02T09:09:12.315Z,4.00
2023-01-02T09:12:00.483Z,4.68
2023-01-02T09:14:49.061Z,3.80
2023-01-02T09:17:35.862Z,5.35
2023-01-02T09:20:22.736Z,5.82
2023-01-02T09:23:09.795Z,5.55
2023-01-02T09:25:58.795Z,6.35
2023-01-02T09:28:46.269Z,4.88
2023-01-02T09:31:34.830Z,5.00
2023-01-02T09:34:22.026Z,6.93
2023-01-02T09:37:10.222Z,7.57
2023-01-02T09:39:57.726Z,4.90
2023-01-02T09:42:45.669Z,5.82
2023-01-02T09:45:33.017Z,5.15
2023-01-02T09:48:22.269Z,5.07
2023-01-02T09:51:11.035Z,6.22
2023-01-02T09:53:58.813Z,8.32
2023-01-02T09:56:51.281Z,7.80
2023-01-02T09:59:45.260Z,8.23
2023-01-02T10:02:49.068Z,3.95
2023-01-02T10:06:03.804Z,3.53
2023-01-02T10:09:02.509Z,6.15
2023-01-02T10:12:00.184Z,3.78
2023-01-02T10:14:55.787Z,3.42
2023-01-02T10:17:49.678Z,5.15
2023-01-02T10:20:38.008Z,3.33
2023-01-02T10:23:29.682Z,2.47
2023-01-02T10:26:18.961Z,4.03
2023-01-02T10:29:13.310Z,5.20
2023-01-02T10:32:02.609Z,4.55
2023-01-02T10:34:59.965Z,3.92
2023-01-02T10:37:47.426Z,4.65
2023-01-02T10:40:43.839Z,4.00
2023-01-02T10:43:34.887Z,4.53
2023-01-02T10:46:22.285Z,6.43
2023-01-02T10:49:11.828Z,5.35
2023-01-02T10:52:06.797Z,6.45
2023-01-02T10:54:59.885Z,6.53
2023-01-02T10:57:51.287Z,6.82
2023-01-02T11:00:38.896Z,8.68
2023-01-02T11:03:26.505Z,6.13
2023-01-02T11:06:35.064Z,8.80
2023-01-02T11:09:28.180Z,8.35
2023-01-02T11:12:15.849Z,8.38
2023-01-02T11:15:14.475Z,7.32
2023-01-02T11:18:03.913Z,6.57
2023-01-02T11:20:53.497Z,7.40
2023-01-02T11:23:44.126Z,7.13
2023-01-02T11:26:32.211Z,8.93
2023-01-02T11:29:27.794Z,7.75
2023-01-02T11:32:25.353Z,9.05
2023-01-02T11:35:33.247Z,10.93
2023-01-02T11:38:29.530Z,9.82
2023-01-02T11:41:48.193Z,10.98
2023-01-02T11:44:42.622Z,12.35
2023-01-02T11:47:35.903Z,9.30
2023-01-02T11:50:27.215Z,10.83
2023-01-02T11:53:21.985Z,10.57
2023-01-02T11:56:14.151Z,12.32
2023-01-02T11:59:04.912Z,9.80
2023-01-02T12:02:01.515Z,11.00
2023-01-02T12:04:50.184Z,11.38
2023-01-02T12:07:44.382Z,15.18
2023-01-02T12:10:47.346Z,11.93
2023-01-02T12:13:49.170Z,14.40
2023-01-02T12:16:46.470Z,11.73
2023-01-02T12:19:49.197Z,12.93
2023-01-02T12:22:58.877Z,13.13
2023-01-02T12:25:54.916Z,13.27
2023-01-02T12:28:57.194Z,12.32
2023-01-02T12:32:06.190Z,14.85
2023-01-02T12:35:07.522Z,13.52
2023-01-02T12:37:59.111Z,14.38
2023-01-02T12:40:57.326Z,12.98
2023-01-02T12:43:59.566Z,13.32
2023-01-02T12:47:07.429Z,11.05
2023-01-02T12:50:10.793Z,11.30
2023-01-02T12:53:11.681Z,15.35
2023-01-02T12:56:08.191Z,12.88
2023-01-02T12:59:07.877Z,12.30
2023-01-02T13:02:04.075Z,12.30
2023-01-02T13:04:54.831Z,10.45
2023-01-02T13:07:48.108Z,10.82
2023-01-02T13:10:37.211Z,7.30
2023-01-02T13:13:28.586Z,11.40
2023-01-02T13:16:25.387Z,8.40
2023-01-02T13:19:22.334Z,9.63
2023-01-02T13:22:21.106Z,9.20
2023-01-02T13:25:15.207Z,11.20
2023-01-02T13:28:07.935Z,9.45
2023-01-02T13:31:44.124Z,11.35
2023-01-02T13:34:22.493Z,10.43
2023-01-02T13:37:15.100Z,10.40
2023-01-02T13:40:04.853Z,10.50
2023-01-02T13:43:03.495Z,12.50
2023-01-02T13:45:55.272Z,11.00
2023-01-02T13:48:46.787Z,10.85
2023-01-02T13:51:35.595Z,12.07
2023-01-02T13:54:36.611Z,14.10
2023-01-02T13:57:34.089Z,13.00
2023-01-02T14:00:35.501Z,14.05
2023-01-02T14:03:37.346Z,15.13
2023-01-02T14:06:30.054Z,12.32
2023-01-02T14:09:18.326Z,10.77
2023-01-02T14:12:13.753Z,15.35
2023-01-02T14:15:01.210Z,16.50
2023-01-02T14:17:58.396Z,16.45
2023-01-02T14:20:50.375Z,15.98
2023-01-02T14:23:42.355Z,20.02
2023-01-02T14:26:55.179Z,16.80
2023-01-02T14:29:52.449Z,17.80
2023-01-02T14:32:43.291Z,16.70
2023-01-02T14:35:34.102Z,15.70
2023-01-02T14:38:25.773Z,17.55
2023-01-02T14:41:33.760Z,12.30
2023-01-02T14:44:21.499Z,18.48
2023-01-02T14:47:13.663Z,14.98
2023-01-02T14:50:04.092Z,13.18
2023-01-02T14:52:58.535Z,11.18
2023-01-02T14:55:49.399Z,11.70
2023-01-02T14:58:42.041Z,12.05
2023-01-02T15:01:42.216Z,11.38
2023-01-02T15:04:40.247Z,11.90
2023-01-02T15:07:31.179Z,10.07
2023-01-02T15:10:19.942Z,10.68
2023-01-02T15:13:11.918Z,10.98
2023-01-02T15:16:01.121Z,13.95
2023-01-02T15:18:51.063Z,10.65
2023-01-02T15:21:40.955Z,12.20
2023-01-02T15:24:31.568Z,12.18
2023-01-02T15:27:24.193Z,14.05
2023-01-02T15:30:25.805Z,14.30
2023-01-02T15:33:27.618Z,13.95
2023-01-02T15:36:17.357Z,11.63
2023-01-02T15:39:14.478Z,13.82
2023-01-02T15:42:08.116Z,12.27
2023-01-02T15:45:10.757Z,13.85
2023-01-02T15:48:00.404Z,14.20
2023-01-02T15:50:49.513Z,16.58
2023-01-02T15:53:40.427Z,12.32
2023-01-02T15:56:34.617Z,12.82
2023-01-02T16:02:32.091Z,11.95
2023-01-02T16:05:20.924Z,11.20
2023-01-02T16:08:08.450Z,9.55
2023-01-02T16:11:02.176Z,10.68
2023-01-02T16:14:11.103Z,12.40
2023-01-02T16:17:04.320Z,11.15
2023-01-02T16:19:58.513Z,10.47
2023-01-02T16:22:48.969Z,10.57
2023-01-02T16:25:36.934Z,8.23
2023-01-02T16:28:34.703Z,9.82
2023-01-02T16:31:25.054Z,12.68
2023-01-02T16:34:24.302Z,14.25
2023-01-02T16:37:25.025Z,11.65
2023-01-02T16:41:00.453Z,15.55
2023-01-02T16:43:50.011Z,10.63
2023-01-02T16:46:37.423Z,14.98
2023-01-02T16:49:25.208Z,16.08
2023-01-02T16:52:12.587Z,15.07
2023-01-02T16:55:00.184Z,13.05
2023-01-02T16:57:50.497Z,13.35
2023-01-02T17:00:43.150Z,16.20
2023-01-02T17:03:30.843Z,14.77
2023-01-02T17:06:19.273Z,16.90
2023-01-02T17:09:06.800Z,11.35
2023-01-02T17:12:03.443Z,10.75
2023-01-02T17:14:52.403Z,14.88
2023-01-02T17:17:40.601Z,11.93
2023-01-02T17:20:28.935Z,12.63
2023-01-02T17:23:18.965Z,13.90
2023-01-02T17:26:06.559Z,10.73
2023-01-02T17:28:54.245Z,11.25
2023-01-02T17:31:42.871Z,11.05
2023-01-02T17:34:30.112Z,9.70
2023-01-02T17:37:18.177Z,8.98
2023-01-02T17:40:06.020Z,5.20
2023-01-02T17:42:53.353Z,3.88
2023-01-02T17:45:42.220Z,3.30
2023-01-02T17:48:31.538Z,3.42
2023-01-02T17:51:18.800Z,4.00
2023-01-02T17:54:06.767Z,4.80
2023-01-02T17:56:53.955Z,5.03
2023-01-02T17:59:41.818Z,3.03
2023-01-02T18:02:29.660Z,4.13
2023-01-02T18:05:18.879Z,8.23
2023-01-02T18:08:06.916Z,3.80
2023-01-02T18:10:54.116Z,2.83
2023-01-02T18:13:44.291Z,6.07
2023-01-02T18:16:33.740Z,2.63
2023-01-02T18:19:25.697Z,3.85
2023-01-02T18:22:17.412Z,2.50
2023-01-02T18:25:19.374Z,6.57
2023-01-02T18:28:20.851Z,2.70
2023-01-02T18:31:13.242Z,4.68
2023-01-02T18:34:02.614Z,4.95
2023-01-02T18:36:50.984Z,6.93
2023-01-02T18:39:43.685Z,5.35
2023-01-02T18:42:34.685Z,7.18
2023-01-02T18:45:23.312Z,6.50
2023-01-02T18:48:17.933Z,4.90
2023-01-02T18:51:10.663Z,5.53
2023-01-02T18:53:59.143Z,7.63
2023-01-02T18:56:47.983Z,9.43
2023-01-02T18:59:35.682Z,7.70
2023-01-02T19:02:28.979Z,8.70
2023-01-02T19:05:21.155Z,10.95
2023-01-02T19:08:15.834Z,11.15
2023-01-02T19:11:24.415Z,8.68
2023-01-02T19:14:20.000Z,9.60
2023-01-02T19:17:19.152Z,9.07
2023-01-02T19:20:07.907Z,8.95
2023-01-02T19:22:55.468Z,7.90
2023-01-02T19:25:43.011Z,10.50
2023-01-02T19:28:31.910Z,9.15
2023-01-02T19:31:20.749Z,10.93
2023-01-02T19:34:26.068Z,8.93
2023-01-02T19:37:25.128Z,11.40
2023-01-02T19:40:18.930Z,8.10
2023-01-02T19:43:06.667Z,9.95
2023-01-02T19:45:54.123Z,10.40
2023-01-02T19:48:42.610Z,12.52
2023-01-02T19:51:32.234Z,13.13
2023-01-02T19:54:19.772Z,14.13
2023-01-02T19:57:08.546Z,13.85
2023-01-02T19:59:56.872Z,18.02
2023-01-02T20:02:48.966Z,16.92
2023-01-02T20:05:38.937Z,16.42
2023-01-02T20:08:26.188Z,19.33
2023-01-02T20:11:33.538Z,18.02
2023-01-02T20:14:20.588Z,18.58
2023-01-02T20:17:09.105Z,13.15
2023-01-02T20:19:57.030Z,15.85
2023-01-02T20:22:46.597Z,16.83
2023-01-02T20:25:34.255Z,18.52
2023-01-02T20:28:21.833Z,14.25
2023-01-02T20:31:09.443Z,20.13
2023-01-02T20:33:57.109Z,15.30
2023-01-02T20:36:44.355Z,20.08
2023-01-02T20:39:33.283Z,20.23
2023-01-02T20:42:21.784Z,16.35
2023-01-02T20:45:10.650Z,17.30
2023-01-02T20:47:58.299Z,16.00
2023-01-02T20:50:45.795Z,13.90
2023-01-02T20:53:33.338Z,19.88
2023-01-02T20:56:22.412Z,15.75
2023-01-02T20:59:10.071Z,19.48
2023-01-02T21:01:57.588Z,16.17
2023-01-02T21:04:44.972Z,18.23
2023-01-02T21:07:32.596Z,17.50
2023-01-02T21:10:20.344Z,16.75
2023-01-02T21:13:10.702Z,18.08
2023-01-02T21:15:58.412Z,17.95
2023-01-02T21:18:46.071Z,19.23
2023-01-02T21:21:33.644Z,16.73
2023-01-02T21:24:21.224Z,19.63
2023-01-02T21:27:12.992Z,21.58
2023-01-02T21:30:02.318Z,19.48
2023-01-02T21:32:49.815Z,19.85
2023-01-02T21:35:38.078Z,21.63
2023-01-02T21:38:26.938Z,20.15
2023-01-02T21:41:31.413Z,19.90
2023-01-02T21:44:19.211Z,17.13
2023-01-02T21:47:08.298Z,23.05
2023-01-02T21:49:55.506Z,17.08
2023-01-02T21:52:43.100Z,18.63
2023-01-02T21:55:30.811Z,18.75
2023-01-02T21:58:18.499Z,22.35
2023-01-02T22:01:06.284Z,14.07
2023-01-02T22:03:57.350Z,17.20
2023-01-02T22:07:29.556Z,20.45
2023-01-02T22:09:52.389Z,17.25
2023-01-02T22:12:39.905Z,22.65
2023-01-02T22:15:27.525Z,24.08
2023-01-02T22:18:15.127Z,19.77
2023-01-02T22:21:04.191Z,18.35
2023-01-02T22:23:51.560Z,19.45
2023-01-02T22:26:39.487Z,17.55
2023-01-02T22:29:51.605Z,16.20
2023-01-02T22:32:35.714Z,20.55
2023-01-02T22:35:23.349Z,21.25
2023-01-02T22:38:12.478Z,21.23
2023-01-02T22:41:00.051Z,19.55
2023-01-02T22:43:47.355Z,19.85
2023-01-02T22:46:43.513Z,18.60
2023-01-02T22:49:32.299Z,23.27
2023-01-02T22:52:20.195Z,23.17
2023-01-02T22:55:16.847Z,20.38
2023-01-02T22:58:05.722Z,22.48
2023-01-02T23:00:58.714Z,25.95
2023-01-02T23:03:47.245Z,20.67
2023-01-02T23:06:41.408Z,24.00
2023-01-02T23:09:39.042Z,29.77
2023-01-02T23:12:27.932Z,24.80
2023-01-02T23:15:15.743Z,24.10
2023-01-02T23:18:20.544Z,20.48
2023-01-02T23:21:09.417Z,21.15
2023-01-02T23:23:57.368Z,15.20
2023-01-02T23:26:46.822Z,25.95
2023-01-02T23:29:36.168Z,23.00
2023-01-02T23:32:24.098Z,18.80
2023-01-02T23:35:11.378Z,19.42
2023-01-02T23:37:58.753Z,19.27
2023-01-02T23:40:46.181Z,15.00
2023-01-02T23:43:33.676Z,20.45
2023-01-02T23:46:22.752Z,19.38
2023-01-02T23:49:11.707Z,15.50
2023-01-02T23:51:59.206Z,21.98
2023-01-02T23:54:46.924Z,15.98
2023-01-02T23:57:34.632Z,18.10
